Time;durP1;ratioP1;P1;durP2;ratioP2;P2;SDS_P1;SDS_P2;PMS_P1;PMS_P2;Temp;Humidity;BMP_temperature;BMP_pressure;BME280_temperature;BME280_humidity;BME280_pressure;Samples;Min_cycle;Max_cycle;Signal;HPM_P1;HPM_P2
2023/08/09 00:00:02;;;;;;;1.17;1.00;;;15.70;99.90;;;;;;5003862;28;20231;-50
2023/08/09 00:02:29;;;;;;;0.97;0.97;;;15.60;99.90;;;;;;5011115;28;20246;-50
2023/08/09 00:04:56;;;;;;;2.27;1.20;;;15.60;99.90;;;;;;5011228;28;20245;-50
2023/08/09 00:07:23;;;;;;;0.63;0.63;;;15.60;99.90;;;;;;5002382;28;20253;-51
2023/08/09 00:09:50;;;;;;;1.07;1.07;;;15.50;99.90;;;;;;5010260;28;20215;-51
2023/08/09 00:12:17;;;;;;;4.63;1.10;;;15.50;99.90;;;;;;5011021;28;20207;-51
2023/08/09 00:14:44;;;;;;;1.83;1.40;;;15.50;99.90;;;;;;5009856;28;20203;-51
2023/08/09 00:17:12;;;;;;;1.40;1.30;;;15.50;99.90;;;;;;5011090;28;20253;-50
2023/08/09 00:19:39;;;;;;;3.30;1.90;;;15.50;99.90;;;;;;5010166;28;20215;-50
2023/08/09 00:22:06;;;;;;;1.73;1.63;;;15.50;99.90;;;;;;5002837;28;20257;-52
2023/08/09 00:24:33;;;;;;;1.90;1.80;;;15.50;99.90;;;;;;5010951;28;20708;-50
2023/08/09 00:27:01;;;;;;;3.30;1.47;;;15.60;99.90;;;;;;5011201;28;20203;-51
2023/08/09 00:29:28;;;;;;;3.27;2.30;;;15.50;99.90;;;;;;5008604;28;20238;-51
2023/08/09 00:31:56;;;;;;;2.20;1.40;;;15.50;99.90;;;;;;5010472;28;20203;-50
2023/08/09 00:34:24;;;;;;;2.00;1.10;;;15.50;99.90;;;;;;5010370;28;20240;-50
2023/08/09 00:36:52;;;;;;;1.87;1.77;;;15.40;99.90;;;;;;5010878;28;20258;-50
2023/08/09 00:39:19;;;;;;;3.03;1.73;;;15.40;99.90;;;;;;5011034;28;20310;-50
2023/08/09 00:41:46;;;;;;;1.60;1.57;;;15.40;99.90;;;;;;5010947;28;20684;-52
2023/08/09 00:44:13;;;;;;;2.20;2.10;;;15.40;99.90;;;;;;5009993;28;20289;-50
2023/08/09 00:46:40;;;;;;;2.00;1.90;;;15.40;99.90;;;;;;5013339;28;20218;-49
2023/08/09 00:49:07;;;;;;;3.17;2.07;;;15.40;99.90;;;;;;5006126;28;20219;-50
2023/08/09 00:51:36;;;;;;;1.40;1.40;;;15.30;99.90;;;;;;5013544;28;20254;-50
2023/08/09 00:54:03;;;;;;;1.60;1.50;;;15.30;99.90;;;;;;5014718;28;20735;-51
2023/08/09 00:56:30;;;;;;;1.27;1.27;;;15.40;99.90;;;;;;5010333;28;20196;-50
2023/08/09 00:58:57;;;;;;;1.77;1.67;;;15.40;99.90;;;;;;5014255;28;20717;-51
2023/08/09 01:01:24;;;;;;;1.20;1.20;;;15.40;99.90;;;;;;5011339;28;20199;-51
2023/08/09 01:03:51;;;;;;;1.20;1.10;;;15.40;99.90;;;;;;5009437;28;20199;-51
2023/08/09 01:06:26;;;;;;;1.30;1.20;;;15.40;99.90;;;;;;5006069;28;20215;-50
2023/08/09 01:09:02;;;;;;;1.50;1.40;;;15.40;99.90;;;;;;5014835;28;20240;-49
2023/08/09 01:11:37;;;;;;;1.43;1.30;;;15.40;99.90;;;;;;5010251;28;20212;-51
2023/08/09 01:14:07;;;;;;;1.70;1.60;;;15.40;99.90;;;;;;5012831;28;20206;-50
2023/08/09 01:16:37;;;;;;;1.10;1.10;;;15.30;99.90;;;;;;5015169;28;20576;-51
2023/08/09 01:19:11;;;;;;;2.27;2.07;;;15.30;99.90;;;;;;5005879;28;20223;-51
2023/08/09 01:21:41;;;;;;;2.97;2.30;;;15.40;99.90;;;;;;5014641;28;20632;-51
2023/08/09 01:24:10;;;;;;;2.07;1.97;;;15.50;99.90;;;;;;5014572;28;20207;-51
2023/08/09 01:26:40;;;;;;;2.47;1.50;;;15.30;99.90;;;;;;5011949;28;20551;-50
2023/08/09 01:29:07;;;;;;;1.97;1.60;;;15.30;99.90;;;;;;5014083;28;20231;-50
2023/08/09 01:31:34;;;;;;;1.20;1.20;;;15.40;99.90;;;;;;5014598;28;20214;-50
2023/08/09 01:34:02;;;;;;;2.53;1.40;;;15.30;99.90;;;;;;5014410;28;20203;-50
2023/08/09 01:36:34;;;;;;;1.30;1.30;;;15.30;99.90;;;;;;5014412;28;20688;-50
2023/08/09 01:39:06;;;;;;;2.97;1.70;;;15.30;99.90;;;;;;5011193;28;20736;-50
2023/08/09 01:41:36;;;;;;;2.17;1.40;;;15.30;99.90;;;;;;5007505;28;20287;-50
2023/08/09 01:44:04;;;;;;;2.43;1.30;;;15.20;99.90;;;;;;5014093;28;20199;-50
2023/08/09 01:46:32;;;;;;;2.73;1.50;;;15.20;99.90;;;;;;5014305;28;20256;-51
2023/08/09 01:49:10;;;;;;;1.40;1.30;;;15.20;99.90;;;;;;5014114;28;20222;-49
2023/08/09 01:51:37;;;;;;;1.80;1.63;;;15.20;99.90;;;;;;5013345;28;20299;-51
2023/08/09 01:54:04;;;;;;;1.80;1.67;;;15.20;99.90;;;;;;5005178;28;20269;-50
2023/08/09 01:56:31;;;;;;;2.03;1.63;;;15.20;99.90;;;;;;5011832;28;20210;-51
2023/08/09 01:59:00;;;;;;;1.20;1.10;;;15.10;99.90;;;;;;5013858;28;20266;-51
2023/08/09 02:01:27;;;;;;;2.00;1.23;;;15.20;99.90;;;;;;5013909;28;20261;-50
2023/08/09 02:03:54;;;;;;;1.20;1.20;;;15.20;99.90;;;;;;5012444;28;20211;-51
2023/08/09 02:06:21;;;;;;;2.63;1.77;;;15.20;99.90;;;;;;5007324;28;20655;-50
2023/08/09 02:08:48;;;;;;;1.10;1.10;;;15.20;99.90;;;;;;5010048;28;20223;-51
2023/08/09 02:11:14;;;;;;;1.10;1.00;;;15.10;99.90;;;;;;5008950;28;20246;-50
2023/08/09 02:13:43;;;;;;;2.07;1.70;;;15.10;99.90;;;;;;5013405;28;20203;-51
2023/08/09 02:16:12;;;;;;;2.07;0.93;;;15.10;99.90;;;;;;4999016;28;20199;-50
2023/08/09 02:18:39;;;;;;;6.03;1.57;;;15.10;99.90;;;;;;5013947;28;20207;-50
2023/08/09 02:21:06;;;;;;;1.33;1.33;;;15.10;99.90;;;;;;5011502;28;20203;-50
2023/08/09 02:23:33;;;;;;;1.30;1.20;;;15.10;99.90;;;;;;5011554;28;20199;-51
2023/08/09 02:26:00;;;;;;;1.00;1.00;;;15.10;99.90;;;;;;5012180;28;20269;-51
2023/08/09 02:28:27;;;;;;;1.13;1.13;;;15.10;99.90;;;;;;5013505;28;20581;-50
2023/08/09 02:30:54;;;;;;;2.93;1.33;;;15.10;99.90;;;;;;5013430;28;20207;-52
2023/08/09 02:33:22;;;;;;;2.77;1.83;;;15.10;99.90;;;;;;5012078;28;20290;-50
2023/08/09 02:35:54;;;;;;;5.70;1.50;;;15.10;99.90;;;;;;5011819;28;20257;-51
2023/08/09 02:38:23;;;;;;;1.33;1.20;;;15.10;99.90;;;;;;5007345;28;20326;-50
2023/08/09 02:40:50;;;;;;;2.37;1.23;;;15.10;99.90;;;;;;5004924;28;20621;-51
2023/08/09 02:43:17;;;;;;;1.27;1.27;;;15.10;99.90;;;;;;5012094;28;20203;-51
2023/08/09 02:45:45;;;;;;;0.97;0.97;;;15.20;99.90;;;;;;5013177;28;20223;-51
2023/08/09 02:48:12;;;;;;;1.33;1.33;;;15.20;99.90;;;;;;5013384;28;20203;-50
2023/08/09 02:50:41;;;;;;;2.20;2.10;;;15.20;99.90;;;;;;5013194;28;20286;-50
2023/08/09 02:53:09;;;;;;;2.30;1.10;;;15.20;99.90;;;;;;5012833;28;20521;-51
2023/08/09 02:55:36;;;;;;;3.73;1.87;;;15.20;99.90;;;;;;5012257;28;20732;-50
2023/08/09 02:58:05;;;;;;;1.67;1.37;;;15.30;99.90;;;;;;5012586;28;20654;-50
2023/08/09 03:00:33;;;;;;;1.60;1.50;;;15.30;99.90;;;;;;5012873;28;20231;-50
2023/08/09 03:03:04;;;;;;;0.90;0.90;;;15.30;99.90;;;;;;5012816;28;20209;-50
2023/08/09 03:05:31;;;;;;;0.70;0.70;;;15.50;99.90;;;;;;5012741;28;20229;-51
2023/08/09 03:08:03;;;;;;;0.70;0.70;;;15.50;99.90;;;;;;5012599;28;20301;-50
2023/08/09 03:10:31;;;;;;;1.53;0.70;;;15.50;99.90;;;;;;5011246;28;20238;-50
2023/08/09 03:12:58;;;;;;;1.30;0.90;;;15.50;99.90;;;;;;5012555;28;20195;-51
2023/08/09 03:15:25;;;;;;;1.30;1.20;;;15.60;99.90;;;;;;5012256;28;20211;-51
2023/08/09 03:17:52;;;;;;;1.30;0.83;;;15.60;99.90;;;;;;5012811;28;20199;-51
2023/08/09 03:20:19;;;;;;;1.13;1.13;;;15.60;99.90;;;;;;5012118;28;20247;-51
2023/08/09 03:22:48;;;;;;;1.00;1.00;;;15.60;99.90;;;;;;5010554;28;20207;-50
2023/08/09 03:25:17;;;;;;;3.43;1.30;;;15.60;99.90;;;;;;5004967;28;20628;-50
2023/08/09 03:27:44;;;;;;;0.90;0.90;;;15.60;99.90;;;;;;5012386;28;20710;-52
2023/08/09 03:30:12;;;;;;;0.80;0.80;;;15.60;99.90;;;;;;5012285;28;20227;-51
2023/08/09 03:32:39;;;;;;;1.37;0.97;;;15.60;99.90;;;;;;5007937;28;20199;-50
2023/08/09 03:35:07;;;;;;;1.13;1.13;;;15.60;99.90;;;;;;5003918;28;20210;-51
2023/08/09 03:37:36;;;;;;;1.50;1.40;;;15.60;99.90;;;;;;5011562;28;20533;-50
2023/08/09 03:40:06;;;;;;;1.10;1.00;;;15.60;99.90;;;;;;5012218;28;20249;-50
2023/08/09 03:42:35;;;;;;;1.43;1.43;;;15.60;99.90;;;;;;5011873;28;20223;-50
2023/08/09 03:45:02;;;;;;;1.27;1.03;;;15.60;99.90;;;;;;5011800;28;20648;-50
2023/08/09 03:47:29;;;;;;;1.90;1.40;;;15.60;99.90;;;;;;5009417;28;20265;-50
2023/08/09 03:49:56;;;;;;;1.33;1.23;;;15.50;99.90;;;;;;5010231;28;20219;-50
2023/08/09 03:52:23;;;;;;;1.03;1.03;;;15.50;99.90;;;;;;5011703;28;20558;-51
2023/08/09 03:54:52;;;;;;;1.63;1.33;;;15.50;99.90;;;;;;5012114;28;20627;-50
2023/08/09 03:57:19;;;;;;;1.43;1.33;;;15.50;99.90;;;;;;5011911;28;20253;-50
2023/08/09 03:59:47;;;;;;;3.27;1.60;;;15.50;99.90;;;;;;5011778;28;20727;-50
2023/08/09 04:02:14;;;;;;;1.47;1.37;;;15.40;99.90;;;;;;5002599;28;20199;-50
2023/08/09 04:04:41;;;;;;;2.20;1.20;;;15.40;99.90;;;;;;5011613;28;20609;-50
2023/08/09 04:07:09;;;;;;;2.50;1.97;;;15.30;99.90;;;;;;5011541;28;20277;-50
2023/08/09 04:09:36;;;;;;;1.10;1.10;;;15.30;99.90;;;;;;5011600;28;20319;-50
2023/08/09 04:12:03;;;;;;;1.87;1.80;;;15.20;99.90;;;;;;5011733;28;20350;-50
2023/08/09 04:14:30;;;;;;;2.10;1.70;;;15.20;99.90;;;;;;5010698;28;20286;-50
2023/08/09 04:16:58;;;;;;;1.60;1.50;;;15.20;99.90;;;;;;5003530;28;20203;-50
2023/08/09 04:19:27;;;;;;;1.30;1.17;;;15.20;99.90;;;;;;5010941;28;20235;-50
2023/08/09 04:21:54;;;;;;;1.67;1.57;;;15.20;99.90;;;;;;5011397;28;20207;-50
2023/08/09 04:24:21;;;;;;;2.97;1.33;;;15.10;99.90;;;;;;5011421;28;20261;-50
2023/08/09 04:26:48;;;;;;;1.60;1.03;;;15.10;99.90;;;;;;5011356;28;20277;-50
2023/08/09 04:29:15;;;;;;;1.73;1.60;;;15.10;99.90;;;;;;5005966;28;20235;-50
2023/08/09 04:31:44;;;;;;;1.40;1.30;;;15.10;99.90;;;;;;5008054;28;20215;-51
2023/08/09 04:34:13;;;;;;;1.43;1.33;;;15.10;99.90;;;;;;5011340;28;20203;-50
2023/08/09 04:36:40;;;;;;;2.53;1.33;;;15.10;99.90;;;;;;5031043;23;20242;-51
2023/08/09 04:39:09;;;;;;;2.17;1.10;;;15.10;99.90;;;;;;5007223;28;20208;-51
2023/08/09 04:41:36;;;;;;;1.20;1.10;;;15.20;99.90;;;;;;5017654;28;20835;-51
2023/08/09 04:44:03;;;;;;;1.80;1.70;;;15.20;99.90;;;;;;5009766;28;20207;-51
2023/08/09 04:46:30;;;;;;;1.37;1.27;;;15.30;99.90;;;;;;5009599;28;20855;-51
2023/08/09 04:48:59;;;;;;;1.60;1.40;;;15.30;99.90;;;;;;5009814;28;20223;-51
2023/08/09 04:51:28;;;;;;;1.57;1.47;;;15.30;99.90;;;;;;5009626;28;20546;-51
2023/08/09 04:53:56;;;;;;;1.40;1.40;;;15.40;99.90;;;;;;5008519;28;20207;-51
2023/08/09 04:56:23;;;;;;;1.10;1.10;;;15.40;99.90;;;;;;5009842;28;20321;-51
2023/08/09 04:58:50;;;;;;;1.90;1.80;;;15.40;99.90;;;;;;5009732;28;20207;-51
2023/08/09 05:01:17;;;;;;;1.57;1.47;;;15.50;99.90;;;;;;5010068;28;20273;-51
2023/08/09 05:03:44;;;;;;;1.50;1.40;;;15.50;99.90;;;;;;5002783;28;20254;-51
2023/08/09 05:06:11;;;;;;;1.80;1.70;;;15.50;99.90;;;;;;5002302;28;20219;-50
2023/08/09 05:08:39;;;;;;;1.10;1.10;;;15.50;99.90;;;;;;5008925;28;20212;-51
2023/08/09 05:11:06;;;;;;;0.83;0.83;;;15.60;99.90;;;;;;5001730;28;20196;-51
2023/08/09 05:13:33;;;;;;;1.30;1.30;;;15.70;99.90;;;;;;5002127;28;20250;-51
2023/08/09 05:16:00;;;;;;;2.50;1.00;;;15.70;99.90;;;;;;5005823;28;20218;-51
2023/08/09 05:18:27;;;;;;;1.30;1.30;;;15.70;99.90;;;;;;5006081;28;20196;-51
2023/08/09 05:20:54;;;;;;;3.80;1.77;;;15.70;99.90;;;;;;5019472;28;20273;-51
2023/08/09 05:23:22;;;;;;;1.67;1.23;;;15.60;99.90;;;;;;5009663;28;20199;-51
2023/08/09 05:25:50;;;;;;;1.60;1.50;;;15.60;99.90;;;;;;5009813;28;20223;-51
2023/08/09 05:28:17;;;;;;;1.40;1.30;;;15.70;99.90;;;;;;5009115;28;20204;-51
2023/08/09 05:30:44;;;;;;;1.37;1.27;;;15.70;99.90;;;;;;5002757;28;20310;-51
2023/08/09 05:33:11;;;;;;;1.40;1.30;;;15.70;99.90;;;;;;5004748;28;20237;-51
2023/08/09 05:35:38;;;;;;;2.23;1.60;;;15.60;99.90;;;;;;5011400;28;20231;-51
2023/08/09 05:38:05;;;;;;;1.60;1.00;;;15.70;99.90;;;;;;5012796;28;20199;-50
2023/08/09 05:40:32;;;;;;;1.77;1.30;;;15.70;99.90;;;;;;5012107;28;20207;-50
2023/08/09 05:43:02;;;;;;;1.97;1.30;;;15.70;99.90;;;;;;5002320;28;20204;-51
2023/08/09 05:45:29;;;;;;;1.50;1.30;;;15.80;99.90;;;;;;5003710;28;20277;-50
2023/08/09 05:47:58;;;;;;;1.37;1.10;;;15.70;99.90;;;;;;5013097;28;20592;-51
2023/08/09 05:50:25;;;;;;;1.53;1.43;;;15.80;99.90;;;;;;5018647;28;20207;-51
2023/08/09 05:52:52;;;;;;;1.23;1.07;;;15.70;99.90;;;;;;5012599;28;20246;-50
2023/08/09 05:55:20;;;;;;;1.27;0.93;;;15.80;99.90;;;;;;5012863;28;20695;-51
2023/08/09 05:57:47;;;;;;;1.77;1.23;;;15.80;99.90;;;;;;5012902;28;20207;-51
2023/08/09 06:00:17;;;;;;;5.73;1.67;;;15.80;99.90;;;;;;5009786;28;20263;-51
2023/08/09 06:02:44;;;;;;;1.93;1.70;;;15.70;99.90;;;;;;4993030;28;20585;-51
2023/08/09 06:05:17;;;;;;;1.57;1.50;;;15.70;99.90;;;;;;4993005;28;20251;-51
2023/08/09 06:07:44;;;;;;;2.87;1.30;;;15.80;99.90;;;;;;4992704;28;20310;-50
2023/08/09 06:10:11;;;;;;;1.47;1.40;;;15.90;99.90;;;;;;5009387;28;20203;-51
2023/08/09 06:12:38;;;;;;;4.93;1.70;;;15.80;99.90;;;;;;5010924;28;20246;-51
2023/08/09 06:15:06;;;;;;;1.10;1.10;;;15.70;99.90;;;;;;4992877;28;20207;-51
2023/08/09 06:17:34;;;;;;;1.57;1.23;;;15.70;99.90;;;;;;4992625;28;20658;-51
2023/08/09 06:20:04;;;;;;;2.80;2.07;;;15.70;99.90;;;;;;5007204;28;20265;-51
2023/08/09 06:22:31;;;;;;;1.37;1.37;;;15.80;99.90;;;;;;5004938;28;20214;-51
2023/08/09 06:24:58;;;;;;;2.07;1.33;;;15.80;99.90;;;;;;5009863;28;20203;-51
2023/08/09 06:27:25;;;;;;;2.33;1.07;;;15.80;99.90;;;;;;5011039;28;20257;-51
2023/08/09 06:29:52;;;;;;;1.20;1.20;;;15.80;99.90;;;;;;5009978;28;20203;-51
2023/08/09 06:32:19;;;;;;;1.83;0.90;;;15.90;99.90;;;;;;5003898;28;20210;-51
2023/08/09 06:34:47;;;;;;;4.83;1.53;;;15.90;99.90;;;;;;5009318;28;20203;-51
2023/08/09 06:37:14;;;;;;;1.47;1.37;;;15.90;99.90;;;;;;5004689;28;20199;-51
2023/08/09 06:39:41;;;;;;;1.67;1.40;;;16.00;99.90;;;;;;5009396;28;20273;-51
2023/08/09 06:42:11;;;;;;;1.80;1.70;;;16.00;99.90;;;;;;5003786;28;20234;-51
2023/08/09 06:44:39;;;;;;;3.30;1.43;;;16.00;99.90;;;;;;5008166;28;20206;-51
2023/08/09 06:47:06;;;;;;;1.10;1.10;;;16.00;99.90;;;;;;5011241;28;20223;-50
2023/08/09 06:49:34;;;;;;;1.50;1.37;;;16.10;99.90;;;;;;5012181;28;20269;-53
2023/08/09 06:52:02;;;;;;;1.87;1.77;;;16.10;99.90;;;;;;5011461;28;20257;-51
2023/08/09 06:54:29;;;;;;;3.23;1.50;;;16.10;99.90;;;;;;5011619;28;20510;-51
2023/08/09 06:56:56;;;;;;;1.33;1.33;;;16.10;99.90;;;;;;5008737;28;20227;-51
2023/08/09 06:59:23;;;;;;;1.27;1.23;;;16.10;99.90;;;;;;5010618;28;20238;-51
2023/08/09 07:01:50;;;;;;;1.40;1.13;;;16.10;99.90;;;;;;5011569;28;20282;-51
2023/08/09 07:04:18;;;;;;;1.57;1.10;;;16.10;99.90;;;;;;5011195;28;20221;-51
2023/08/09 07:06:45;;;;;;;1.83;1.43;;;16.00;99.90;;;;;;5010435;28;20231;-51
2023/08/09 07:09:18;;;;;;;1.53;1.43;;;16.00;99.90;;;;;;5016149;28;20670;-51
2023/08/09 07:11:46;;;;;;;1.53;1.43;;;16.00;99.90;;;;;;5016725;28;20661;-51
2023/08/09 07:14:13;;;;;;;3.33;1.43;;;16.00;99.90;;;;;;5018909;28;20246;-51
2023/08/09 07:16:40;;;;;;;2.20;1.40;;;16.00;99.90;;;;;;5020595;28;20233;-50
2023/08/09 07:19:07;;;;;;;1.40;1.30;;;16.10;99.90;;;;;;5014186;28;20265;-51
2023/08/09 07:21:34;;;;;;;1.70;1.60;;;16.10;99.90;;;;;;5004246;28;20339;-51
2023/08/09 07:24:01;;;;;;;1.50;1.40;;;16.00;99.90;;;;;;5010262;28;20265;-51
2023/08/09 07:26:29;;;;;;;1.30;1.30;;;16.00;99.90;;;;;;5016862;28;20280;-51
2023/08/09 07:28:56;;;;;;;1.80;1.70;;;16.10;99.90;;;;;;5020310;28;20267;-51
2023/08/09 07:31:24;;;;;;;1.67;1.57;;;16.00;99.90;;;;;;5013390;28;20199;-51
2023/08/09 07:33:52;;;;;;;2.00;1.73;;;16.00;99.90;;;;;;5018758;28;20215;-51
2023/08/09 07:36:19;;;;;;;1.33;1.17;;;16.00;99.90;;;;;;5007927;28;20354;-51
2023/08/09 07:38:46;;;;;;;3.57;1.67;;;16.10;99.90;;;;;;5018755;28;20247;-51
2023/08/09 07:41:13;;;;;;;1.20;1.20;;;16.10;99.90;;;;;;5010554;28;20229;-51
2023/08/09 07:43:42;;;;;;;1.43;1.33;;;16.10;99.90;;;;;;5010973;28;20203;-51
2023/08/09 07:46:09;;;;;;;1.50;1.40;;;16.10;99.90;;;;;;5010870;28;20253;-51
2023/08/09 07:48:36;;;;;;;1.20;1.17;;;16.20;99.90;;;;;;5021778;28;20354;-51
2023/08/09 07:51:04;;;;;;;1.70;1.60;;;16.30;99.90;;;;;;5019412;28;20269;-51
2023/08/09 07:53:32;;;;;;;1.40;1.03;;;16.30;99.90;;;;;;5016015;28;20289;-51
2023/08/09 07:55:59;;;;;;;1.40;1.40;;;16.40;99.90;;;;;;5017085;28;20234;-51
2023/08/09 07:58:26;;;;;;;1.67;1.30;;;16.40;99.90;;;;;;5015223;28;20215;-51
2023/08/09 08:00:54;;;;;;;3.27;1.87;;;16.40;99.90;;;;;;5010948;28;20211;-50
2023/08/09 08:03:21;;;;;;;2.70;1.73;;;16.40;99.90;;;;;;5007004;28;20199;-51
2023/08/09 08:05:48;;;;;;;1.87;1.77;;;16.50;99.90;;;;;;5009710;28;20268;-51
2023/08/09 08:08:17;;;;;;;2.47;2.33;;;16.50;99.90;;;;;;5006290;28;20211;-51
2023/08/09 08:10:44;;;;;;;2.47;2.37;;;16.50;99.90;;;;;;5010381;28;20291;-51
2023/08/09 08:13:12;;;;;;;1.77;1.67;;;16.50;99.90;;;;;;5009874;28;20211;-51
2023/08/09 08:15:39;;;;;;;2.37;2.17;;;16.60;99.90;;;;;;5009617;28;20234;-51
2023/08/09 08:18:09;;;;;;;2.57;1.80;;;16.50;99.90;;;;;;5009218;28;20269;-51
2023/08/09 08:20:37;;;;;;;2.20;2.10;;;16.40;99.90;;;;;;5020107;28;20253;-51
2023/08/09 08:23:06;;;;;;;5.60;2.33;;;16.50;99.90;;;;;;5009544;28;20207;-51
2023/08/09 08:25:33;;;;;;;2.08;1.90;;;16.50;99.90;;;;;;4995348;28;20458;-50
2023/08/09 08:28:04;;;;;;;1.73;1.63;;;16.50;99.90;;;;;;5001636;28;20222;-57
2023/08/09 08:30:31;;;;;;;4.20;1.80;;;16.50;99.90;;;;;;5008779;28;20203;-57
2023/08/09 08:33:01;;;;;;;1.80;1.70;;;16.50;99.90;;;;;;5009820;28;20210;-59
2023/08/09 08:35:36;;;;;;;1.40;1.30;;;16.40;99.90;;;;;;5008865;28;20235;-58
2023/08/09 08:38:04;;;;;;;1.57;1.57;;;16.40;99.90;;;;;;5006536;28;20199;-57
2023/08/09 08:40:33;;;;;;;1.70;1.60;;;16.40;99.90;;;;;;5004890;28;20203;-62
2023/08/09 08:43:06;;;;;;;2.43;2.00;;;16.40;99.90;;;;;;5007896;28;20316;-61
2023/08/09 08:45:33;;;;;;;1.83;1.70;;;16.50;99.90;;;;;;5009398;28;20570;-59
2023/08/09 08:48:04;;;;;;;2.50;1.57;;;16.50;99.90;;;;;;5016882;28;20233;-58
2023/08/09 08:50:34;;;;;;;2.83;1.97;;;16.50;99.90;;;;;;5008070;28;20213;-58
2023/08/09 08:53:01;;;;;;;3.90;2.57;;;16.60;99.90;;;;;;5006464;28;20265;-60
2023/08/09 08:55:28;;;;;;;1.90;1.80;;;16.60;99.90;;;;;;5009355;28;20604;-61
2023/08/09 08:57:58;;;;;;;4.23;2.60;;;16.60;99.90;;;;;;5008028;28;20273;-62
2023/08/09 09:00:25;;;;;;;2.27;2.17;;;16.50;99.90;;;;;;5008942;28;20580;-61
2023/08/09 09:02:52;;;;;;;2.20;2.10;;;16.50;99.90;;;;;;5008629;28;20285;-63
2023/08/09 09:05:19;;;;;;;1.90;1.70;;;16.60;99.90;;;;;;5008093;28;20223;-61
2023/08/09 09:07:50;;;;;;;4.33;1.97;;;16.60;99.90;;;;;;5012566;28;20226;-62
2023/08/09 09:10:18;;;;;;;2.57;2.47;;;16.50;99.90;;;;;;5013334;28;20217;-61
2023/08/09 09:12:46;;;;;;;4.00;1.70;;;16.60;99.90;;;;;;5012110;28;20222;-61
2023/08/09 09:15:14;;;;;;;1.80;1.70;;;16.70;99.90;;;;;;5012701;28;20292;-62
2023/08/09 09:17:42;;;;;;;2.87;2.40;;;16.80;99.90;;;;;;5013246;28;20302;-63
2023/08/09 09:20:18;;;;;;;5.27;2.37;;;16.90;99.90;;;;;;5011381;28;20203;-64
2023/08/09 09:22:46;;;;;;;3.17;1.90;;;16.90;99.90;;;;;;5012695;28;20203;-62
2023/08/09 09:25:17;;;;;;;3.97;2.33;;;17.00;99.90;;;;;;5013257;28;20230;-63
2023/08/09 09:27:48;;;;;;;3.00;2.83;;;17.10;99.90;;;;;;5013278;28;20222;-64
2023/08/09 09:30:19;;;;;;;1.97;1.87;;;17.20;99.90;;;;;;5011144;28;20207;-64
2023/08/09 09:32:56;;;;;;;2.13;2.03;;;17.20;99.90;;;;;;5026962;28;20202;-63
2023/08/09 09:35:25;;;;;;;2.70;2.40;;;17.30;99.90;;;;;;5004892;28;20234;-60
2023/08/09 09:37:58;;;;;;;3.00;2.30;;;17.30;99.90;;;;;;5013002;28;20294;-58
2023/08/09 09:40:30;;;;;;;2.03;1.90;;;17.30;99.90;;;;;;5012975;28;20211;-60
2023/08/09 09:43:01;;;;;;;3.23;1.97;;;17.40;99.90;;;;;;5012668;28;20211;-61
2023/08/09 09:45:29;;;;;;;1.97;1.87;;;17.50;99.90;;;;;;5013073;28;20227;-58
2023/08/09 09:48:01;;;;;;;2.50;2.40;;;17.50;99.90;;;;;;5012249;28;20223;-59
2023/08/09 09:50:29;;;;;;;2.10;1.90;;;17.40;99.90;;;;;;5017890;28;20230;-57
2023/08/09 09:53:00;;;;;;;1.80;1.70;;;17.40;99.90;;;;;;4994360;28;20682;-60
2023/08/09 09:55:29;;;;;;;3.63;2.53;;;17.50;99.90;;;;;;4992910;28;20286;-59
2023/08/09 09:57:59;;;;;;;2.23;2.00;;;17.50;99.90;;;;;;5009322;28;20203;-63
2023/08/09 10:00:27;;;;;;;1.87;1.80;;;17.60;99.90;;;;;;5012486;28;20206;-62
2023/08/09 10:02:58;;;;;;;1.97;1.63;;;17.70;99.90;;;;;;5008995;28;20627;-63
2023/08/09 10:05:35;;;;;;;3.40;2.47;;;17.70;99.90;;;;;;5006634;28;20640;-64
2023/08/09 10:08:06;;;;;;;1.97;1.80;;;17.80;99.90;;;;;;5011143;28;20229;-63
2023/08/09 10:10:37;;;;;;;3.80;1.90;;;17.70;99.90;;;;;;5012621;28;20218;-61
2023/08/09 10:13:05;;;;;;;1.83;1.73;;;17.60;99.90;;;;;;5013997;28;20206;-61
2023/08/09 10:15:36;;;;;;;2.20;2.10;;;17.60;99.90;;;;;;5012230;28;20258;-64
2023/08/09 10:18:10;;;;;;;2.10;2.00;;;17.50;99.90;;;;;;5010085;28;20257;-60
2023/08/09 10:20:40;;;;;;;7.43;2.33;;;17.50;99.90;;;;;;5009993;28;20203;-58
2023/08/09 10:23:07;;;;;;;5.60;2.10;;;17.60;99.90;;;;;;5008661;28;20270;-58
2023/08/09 10:25:45;;;;;;;2.10;2.00;;;17.60;99.90;;;;;;4996420;28;20229;-58
2023/08/09 10:28:13;;;;;;;1.83;1.73;;;17.70;99.90;;;;;;5004035;28;20218;-60
2023/08/09 10:30:48;;;;;;;2.33;2.17;;;17.80;99.90;;;;;;5018963;28;20257;-59
2023/08/09 10:33:18;;;;;;;1.87;1.77;;;17.80;99.90;;;;;;5007211;28;20627;-59
2023/08/09 10:35:50;;;;;;;2.50;2.30;;;17.80;99.90;;;;;;5016259;23;20239;-52
2023/08/09 10:38:19;;;;;;;2.07;1.93;;;17.90;99.90;;;;;;5011015;28;20194;-50
2023/08/09 10:40:53;;;;;;;4.83;2.90;;;18.00;99.90;;;;;;5015776;28;20247;-50
2023/08/09 10:43:21;;;;;;;2.27;2.17;;;18.20;99.90;;;;;;5013024;28;20262;-51
2023/08/09 10:45:50;;;;;;;2.83;2.57;;;18.30;99.90;;;;;;5011580;28;20588;-50
2023/08/09 10:48:20;;;;;;;1.63;1.53;;;18.30;99.90;;;;;;5012813;28;20639;-51
2023/08/09 10:50:47;;;;;;;2.37;1.57;;;18.40;99.90;;;;;;5012071;28;20621;-50
2023/08/09 10:53:21;;;;;;;1.67;1.57;;;18.40;99.90;;;;;;5012431;28;20202;-50
2023/08/09 10:55:49;;;;;;;2.63;2.50;;;18.60;99.90;;;;;;4996082;28;20200;-50
2023/08/09 10:58:17;;;;;;;1.83;1.63;;;18.50;99.90;;;;;;4993428;28;20223;-55
2023/08/09 11:00:46;;;;;;;1.53;1.53;;;18.60;99.90;;;;;;5009739;28;20218;-54
2023/08/09 11:03:13;;;;;;;2.63;1.93;;;18.60;99.90;;;;;;5012693;28;20258;-54
2023/08/09 11:05:40;;;;;;;2.00;2.00;;;18.70;99.90;;;;;;5011821;28;20734;-55
2023/08/09 11:08:16;;;;;;;1.77;1.67;;;18.80;99.90;;;;;;5007438;28;20223;-53
2023/08/09 11:10:43;;;;;;;1.70;1.60;;;18.80;99.90;;;;;;5007725;28;20210;-56
2023/08/09 11:13:13;;;;;;;1.57;1.47;;;18.90;99.90;;;;;;5000643;28;20666;-56
2023/08/09 11:15:45;;;;;;;2.10;1.70;;;19.00;99.90;;;;;;4992902;28;20306;-57
2023/08/09 11:18:12;;;;;;;1.97;1.80;;;19.00;99.90;;;;;;4993398;28;20278;-56
2023/08/09 11:20:40;;;;;;;1.83;1.53;;;19.00;99.90;;;;;;5010698;28;20203;-57
2023/08/09 11:23:07;;;;;;;1.50;1.50;;;18.90;99.90;;;;;;5003708;28;20278;-56
2023/08/09 11:25:34;;;;;;;2.17;1.93;;;19.00;99.90;;;;;;5003284;28;20280;-56
2023/08/09 11:28:03;;;;;;;1.97;1.30;;;19.00;99.90;;;;;;4996923;28;20215;-57
2023/08/09 11:30:31;;;;;;;3.23;2.00;;;19.00;99.90;;;;;;5003402;28;20203;-57
2023/08/09 11:33:03;;;;;;;3.27;1.83;;;19.00;99.90;;;;;;5011205;28;20290;-58
2023/08/09 11:35:36;;;;;;;1.87;1.77;;;19.00;99.90;;;;;;5006695;28;20235;-57
2023/08/09 11:38:07;;;;;;;2.33;2.17;;;19.10;99.90;;;;;;5012022;28;20670;-57
2023/08/09 11:40:41;;;;;;;2.60;2.40;;;19.20;99.90;;;;;;5012165;28;20289;-56
2023/08/09 11:43:11;;;;;;;2.73;2.07;;;19.30;99.90;;;;;;5011954;28;20211;-56
2023/08/09 11:45:48;;;;;;;3.40;2.10;;;19.40;99.90;;;;;;5009753;28;20294;-58
2023/08/09 11:48:26;;;;;;;2.10;2.00;;;19.50;99.90;;;;;;5006918;28;20237;-56
2023/08/09 11:51:02;;;;;;;2.30;2.10;;;19.60;99.90;;;;;;5010155;28;20222;-55
2023/08/09 11:53:29;;;;;;;3.23;1.90;;;19.70;99.90;;;;;;4991909;28;20732;-56
2023/08/09 11:56:00;;;;;;;1.93;1.87;;;19.90;99.90;;;;;;4992275;28;20219;-57
2023/08/09 11:58:27;;;;;;;3.27;2.33;;;20.00;99.90;;;;;;4992326;28;20583;-57
2023/08/09 12:00:54;;;;;;;1.40;1.30;;;20.10;99.90;;;;;;4992998;28;20259;-59
2023/08/09 12:03:21;;;;;;;1.97;1.83;;;20.30;99.90;;;;;;5006035;28;20289;-58
2023/08/09 12:05:52;;;;;;;1.80;1.70;;;20.40;99.90;;;;;;4995116;28;20291;-57
2023/08/09 12:08:33;;;;;;;3.07;2.10;;;20.50;99.90;;;;;;5010900;28;20301;-55
2023/08/09 12:11:00;;;;;;;3.27;2.07;;;20.70;99.90;;;;;;5011279;28;20247;-57
2023/08/09 12:13:27;;;;;;;2.63;2.13;;;20.80;99.90;;;;;;5011179;28;20258;-57
2023/08/09 12:15:54;;;;;;;2.00;1.80;;;20.90;99.90;;;;;;5011116;28;20223;-59
2023/08/09 12:18:21;;;;;;;2.10;2.00;;;21.00;99.90;;;;;;5009799;28;20261;-61
2023/08/09 12:20:50;;;;;;;2.70;2.27;;;21.10;99.90;;;;;;5004113;28;20280;-56
2023/08/09 12:23:17;;;;;;;1.67;1.57;;;21.10;99.90;;;;;;5010860;28;20238;-57
2023/08/09 12:25:44;;;;;;;2.20;1.53;;;21.10;99.90;;;;;;5011339;28;20257;-57
2023/08/09 12:28:11;;;;;;;1.50;1.40;;;21.10;99.90;;;;;;5010943;28;20230;-60
2023/08/09 12:30:38;;;;;;;1.33;1.33;;;20.90;99.90;;;;;;5010818;28;20199;-62
2023/08/09 12:33:08;;;;;;;2.50;1.50;;;20.90;99.90;;;;;;5010415;28;20210;-57
2023/08/09 12:35:35;;;;;;;2.10;1.60;;;20.90;99.90;;;;;;5016921;28;20688;-57
2023/08/09 12:38:04;;;;;;;1.43;1.33;;;20.80;99.90;;;;;;5031017;28;20586;-57
2023/08/09 12:40:31;;;;;;;1.50;1.40;;;20.70;99.90;;;;;;5017176;28;20522;-56
2023/08/09 12:43:01;;;;;;;2.63;2.00;;;20.50;99.90;;;;;;5017565;28;20218;-58
2023/08/09 12:45:28;;;;;;;1.70;1.60;;;20.60;99.90;;;;;;5017937;28;20207;-58
2023/08/09 12:47:55;;;;;;;1.47;1.37;;;20.70;99.90;;;;;;5016854;28;20230;-62
2023/08/09 12:50:22;;;;;;;2.40;1.83;;;20.80;99.90;;;;;;5004129;28;20215;-57
2023/08/09 12:52:49;;;;;;;1.27;1.27;;;21.10;99.90;;;;;;5013343;28;20217;-58